createdAt,value
2023-04-01T00:00:00.932Z,97231.22
2023-04-01T00:03:03.502Z,97225.31
2023-04-01T00:06:06.346Z,97226.44
2023-04-01T00:09:08.818Z,97219.72
2023-04-01T00:12:12.699Z,97227.34
2023-04-01T00:15:15.527Z,97224.69
2023-04-01T00:18:18.217Z,97222.88
2023-04-01T00:21:21.554Z,97221.03
2023-04-01T00:24:24.544Z,97220.69
2023-04-01T00:27:28.546Z,97214.41
2023-04-01T00:30:31.041Z,97224.31
2023-04-01T00:33:33.762Z,97219.84
2023-04-01T00:36:36.273Z,97222.41
2023-04-01T00:39:39.600Z,97221.97
2023-04-01T00:42:43.482Z,97225.38
2023-04-01T00:45:47.049Z,97233.66
2023-04-01T00:48:51.360Z,97232.53
2023-04-01T00:51:56.409Z,97226.34
2023-04-01T00:55:02.131Z,97226.44
2023-04-01T00:58:09.576Z,97235.66
2023-04-01T01:01:12.348Z,97223.75
2023-04-01T01:04:24.215Z,97237.78
2023-04-01T01:07:31.982Z,97233.16
2023-04-01T01:10:36.194Z,97227.56
2023-04-01T01:13:45.836Z,97234.53
2023-04-01T01:16:53.845Z,97216.84
2023-04-01T01:20:25.843Z,97213.50
2023-04-01T01:23:46.772Z,97217.13
2023-04-01T01:26:55.022Z,97225.16
2023-04-01T01:30:19.881Z,97229.53
2023-04-01T01:33:46.345Z,97226.81
2023-04-01T01:36:52.997Z,97224.69
2023-04-01T01:39:57.927Z,97222.47
2023-04-01T01:43:02.389Z,97217.56
2023-04-01T01:46:09.938Z,97224.88
2023-04-01T01:49:13.372Z,97222.34
2023-04-01T01:52:19.303Z,97221.16
2023-04-01T01:55:31.025Z,97225.97
2023-04-01T01:58:35.819Z,97221.97
2023-04-01T02:01:41.485Z,97216.19
2023-04-01T02:04:45.998Z,97223.69
2023-04-01T02:07:54.909Z,97215.53
2023-04-01T02:10:59.922Z,97212.69
2023-04-01T02:14:05.277Z,97211.66
2023-04-01T02:17:09.501Z,97218.34
2023-04-01T02:20:15.916Z,97222.31
2023-04-01T02:23:20.180Z,97230.97
2023-04-01T02:26:23.207Z,97231.31
2023-04-01T02:29:27.231Z,97217.41
2023-04-01T02:32:30.586Z,97231.41
2023-04-01T02:35:35.154Z,97237.56
2023-04-01T02:38:39.255Z,97228.94
2023-04-01T02:41:42.268Z,97218.88
2023-04-01T02:44:44.789Z,97221.09
2023-04-01T02:47:47.486Z,97215.44
2023-04-01T02:50:50.298Z,97225.19
2023-04-01T02:53:54.237Z,97230.31
2023-04-01T02:56:57.252Z,97220.66
2023-04-01T02:59:59.914Z,97228.81
2023-04-01T03:03:03.718Z,97221.66
2023-04-01T03:06:07.876Z,97216.56
2023-04-01T03:09:11.695Z,97219.50
2023-04-01T03:12:14.672Z,97222.91
2023-04-01T03:15:17.494Z,97216.78
2023-04-01T03:18:20.021Z,97228.41
2023-04-01T03:21:24.613Z,97232.69
2023-04-01T03:24:28.455Z,97222.84
2023-04-01T03:27:31.083Z,97220.94
2023-04-01T03:30:34.609Z,97218.00
2023-04-01T03:33:37.360Z,97227.91
2023-04-01T03:36:40.023Z,97229.88
2023-04-01T03:39:44.640Z,97238.69
2023-04-01T03:42:48.374Z,97230.59
2023-04-01T03:45:52.435Z,97221.53
2023-04-01T03:48:55.020Z,97219.22
2023-04-01T03:51:57.529Z,97224.63
2023-04-01T03:55:02.936Z,97228.63
2023-04-01T03:58:05.825Z,97222.13
2023-04-01T04:01:15.976Z,97217.06
2023-04-01T04:04:18.639Z,97215.84
2023-04-01T04:07:21.358Z,97218.41
2023-04-01T04:10:25.996Z,97210.75
2023-04-01T04:13:28.742Z,97206.75
2023-04-01T04:16:31.358Z,97215.63
2023-04-01T04:19:35.355Z,97200.28
2023-04-01T04:22:38.072Z,97208.47
2023-04-01T04:25:42.074Z,97206.41
2023-04-01T04:28:44.725Z,97205.00
2023-04-01T04:31:47.268Z,97202.38
2023-04-01T04:34:49.861Z,97211.69
2023-04-01T04:37:52.380Z,97196.72
2023-04-01T04:40:56.366Z,97202.16
2023-04-01T04:43:59.583Z,97202.97
2023-04-01T04:47:02.814Z,97207.16
2023-04-01T04:50:06.290Z,97196.94
2023-04-01T04:53:08.858Z,97209.09
2023-04-01T04:56:12.868Z,97198.09
2023-04-01T04:59:15.588Z,97196.06
2023-04-01T05:02:18.668Z,97204.66
2023-04-01T05:05:21.391Z,97190.38
2023-04-01T05:08:23.981Z,97191.75
2023-04-01T05:11:28.283Z,97185.06
2023-04-01T05:14:30.825Z,97186.03
2023-04-01T05:17:33.518Z,97182.63
2023-04-01T05:20:36.021Z,97186.38
2023-04-01T05:23:39.083Z,97175.38
2023-04-01T05:26:42.947Z,97170.94
2023-04-01T05:29:45.470Z,97171.84
2023-04-01T05:32:48.204Z,97175.06
2023-04-01T05:35:50.850Z,97169.16
2023-04-01T05:38:56.860Z,97167.91
2023-04-01T05:42:00.840Z,97176.94
2023-04-01T05:45:03.447Z,97174.63
2023-04-01T05:48:06.958Z,97168.06
2023-04-01T05:51:14.346Z,97169.38
2023-04-01T05:54:16.804Z,97163.66
2023-04-01T05:57:20.654Z,97165.69
2023-04-01T06:00:23.299Z,97168.97
2023-04-01T06:03:25.962Z,97167.16
2023-04-01T06:06:30.905Z,97155.03
2023-04-01T06:09:33.364Z,97149.28
2023-04-01T06:12:45.278Z,97147.97
2023-04-01T06:15:54.309Z,97143.91
2023-04-01T06:19:06.714Z,97149.28
2023-04-01T06:22:34.102Z,97153.06
2023-04-01T06:25:45.005Z,97150.28
2023-04-01T06:29:28.210Z,97148.06
2023-04-01T06:32:58.195Z,97152.44
2023-04-01T06:36:24.082Z,97164.22
2023-04-01T06:39:42.495Z,97156.78
2023-04-01T06:42:53.935Z,97156.91
2023-04-01T06:46:04.033Z,97159.38
2023-04-01T06:49:19.705Z,97160.53
2023-04-01T06:52:25.841Z,97163.91
2023-04-01T06:55:34.278Z,97155.47
2023-04-01T06:58:39.778Z,97160.81
2023-04-01T07:01:47.587Z,97152.31
2023-04-01T07:04:53.231Z,97162.53
2023-04-01T07:07:57.771Z,97161.38
2023-04-01T07:11:05.254Z,97169.28
2023-04-01T07:14:14.258Z,97169.28
2023-04-01T07:17:20.913Z,97164.03
2023-04-01T07:20:27.275Z,97177.78
2023-04-01T07:23:33.584Z,97180.50
2023-04-01T07:26:36.202Z,97180.94
2023-04-01T07:29:39.062Z,97179.50
2023-04-01T07:32:45.075Z,97189.94
2023-04-01T07:35:52.131Z,97186.38
2023-04-01T07:39:01.502Z,97192.78
2023-04-01T07:42:10.108Z,97197.56
2023-04-01T07:45:18.582Z,97193.16
2023-04-01T07:48:28.586Z,97184.59
2023-04-01T07:51:34.355Z,97178.50
2023-04-01T07:54:42.505Z,97211.28
2023-04-01T07:57:51.095Z,97180.78
2023-04-01T08:00:58.340Z,97180.00
2023-04-01T08:04:24.586Z,97178.19
2023-04-01T08:07:29.465Z,97181.63
2023-04-01T08:10:35.462Z,97189.72
2023-04-01T08:13:43.149Z,97193.50
2023-04-01T08:16:49.131Z,97181.38
2023-04-01T08:20:01.992Z,97174.72
2023-04-01T08:23:09.735Z,97179.91
2023-04-01T08:26:15.445Z,97186.75
2023-04-01T08:29:22.013Z,97193.66
2023-04-01T08:32:28.547Z,97198.44
2023-04-01T08:35:38.447Z,97199.91
2023-04-01T08:38:44.265Z,97190.41
2023-04-01T08:42:11.735Z,97204.28
2023-04-01T08:45:35.089Z,97213.81
2023-04-01T08:48:47.582Z,97215.00
2023-04-01T08:52:04.191Z,97202.53
2023-04-01T08:55:30.989Z,97205.25
2023-04-01T08:59:10.896Z,97200.41
2023-04-01T09:02:32.683Z,97186.84
2023-04-01T09:05:43.132Z,97178.78
2023-04-01T09:08:59.724Z,97197.69
2023-04-01T09:12:22.983Z,97198.09
2023-04-01T09:15:44.765Z,97187.13
2023-04-01T09:19:11.090Z,97192.00
2023-04-01T09:22:39.880Z,97196.25
2023-04-01T09:25:55.956Z,97210.66
2023-04-01T09:29:05.295Z,97189.16
2023-04-01T09:32:45.256Z,97190.16
2023-04-01T09:35:48.926Z,97210.25
2023-04-01T09:38:57.605Z,97210.63
2023-04-01T09:42:09.848Z,97215.06
2023-04-01T09:45:22.832Z,97214.19
2023-04-01T09:48:41.005Z,97230.75
2023-04-01T09:51:53.357Z,97223.41
2023-04-01T09:55:05.868Z,97221.22
2023-04-01T09:58:43.851Z,97220.97
2023-04-01T10:02:19.740Z,97218.50
2023-04-01T10:05:42.776Z,97215.59
2023-04-01T10:09:14.412Z,97234.38
2023-04-01T10:12:35.374Z,97233.56
2023-04-01T10:16:13.764Z,97232.38
2023-04-01T10:19:45.585Z,97241.16
2023-04-01T10:23:30.209Z,97224.50
2023-04-01T10:27:06.575Z,97213.13
2023-04-01T10:30:39.902Z,97227.69
2023-04-01T10:34:15.931Z,97236.13
2023-04-01T10:37:29.877Z,97243.59
2023-04-01T10:40:42.380Z,97228.56
2023-04-01T10:44:04.036Z,97241.63
2023-04-01T10:47:41.753Z,97231.38
2023-04-01T10:51:20.291Z,97232.16
2023-04-01T10:54:43.959Z,97230.34
2023-04-01T10:58:03.311Z,97235.16
2023-04-01T11:01:22.304Z,97223.16
2023-04-01T11:04:59.454Z,97247.44
2023-04-01T11:08:36.610Z,97236.56
2023-04-01T11:12:12.025Z,97239.41
2023-04-01T11:15:33.078Z,97243.75
2023-04-01T11:19:07.728Z,97243.09
2023-04-01T11:22:25.918Z,97237.06
2023-04-01T11:25:53.161Z,97235.47
2023-04-01T11:29:11.068Z,97247.84
2023-04-01T11:32:25.584Z,97239.38
2023-04-01T11:35:38.862Z,97228.75
2023-04-01T11:39:00.033Z,97243.88
2023-04-01T11:42:13.207Z,97241.28
2023-04-01T11:45:34.225Z,97247.38
2023-04-01T11:48:53.799Z,97257.44
2023-04-01T11:52:07.093Z,97247.59
2023-04-01T11:55:25.990Z,97258.22
2023-04-01T11:59:10.556Z,97271.69
2023-04-01T12:02:16.696Z,97260.03
2023-04-01T12:05:27.535Z,97266.22
2023-04-01T12:08:41.171Z,97274.75
2023-04-01T12:11:49.415Z,97273.22
2023-04-01T12:15:00.388Z,97266.78
2023-04-01T12:18:11.496Z,97278.06
2023-04-01T12:21:22.564Z,97270.69
2023-04-01T12:24:36.246Z,97271.59
2023-04-01T12:27:44.583Z,97272.88
2023-04-01T12:30:53.294Z,97285.69
2023-04-01T12:34:19.984Z,97285.75
2023-04-01T12:37:26.844Z,97276.19
2023-04-01T12:40:41.275Z,97282.06
2023-04-01T12:44:07.831Z,97284.69
2023-04-01T12:47:51.792Z,97280.56
2023-04-01T12:51:22.698Z,97278.84
2023-04-01T12:54:51.200Z,97281.38
2023-04-01T12:58:05.840Z,97281.13
2023-04-01T13:01:27.570Z,97287.03
2023-04-01T13:04:50.900Z,97286.41
2023-04-01T13:08:04.611Z,97292.25
2023-04-01T13:11:11.860Z,97307.72
2023-04-01T13:14:43.440Z,97297.81
2023-04-01T13:17:49.907Z,97289.56
2023-04-01T13:21:00.722Z,97302.50
2023-04-01T13:24:08.765Z,97298.06
2023-04-01T13:27:18.651Z,97305.88
2023-04-01T13:30:27.694Z,97305.16
2023-04-01T13:33:37.740Z,97310.47
2023-04-01T13:36:51.930Z,97323.81
2023-04-01T13:40:03.777Z,97321.88
2023-04-01T13:43:12.360Z,97310.91
2023-04-01T13:46:29.252Z,97309.56
2023-04-01T13:49:44.061Z,97312.69
2023-04-01T13:53:04.997Z,97319.28
2023-04-01T13:56:17.674Z,97335.53
2023-04-01T13:59:44.674Z,97323.13
2023-04-01T14:02:55.862Z,97319.69
2023-04-01T14:06:11.661Z,97330.13
2023-04-01T14:09:28.958Z,97330.13
2023-04-01T14:12:34.180Z,97336.66
2023-04-01T14:16:00.842Z,97353.53
2023-04-01T14:19:20.678Z,97335.19
2023-04-01T14:22:30.247Z,97341.09
2023-04-01T14:25:43.921Z,97340.19
2023-04-01T14:28:50.695Z,97346.41
2023-04-01T14:32:02.103Z,97339.31
2023-04-01T14:35:27.836Z,97342.47
2023-04-01T14:38:40.437Z,97353.69
2023-04-01T14:41:50.356Z,97344.69
2023-04-01T14:44:59.913Z,97341.75
2023-04-01T14:48:08.618Z,97357.88
2023-04-01T14:51:17.529Z,97356.69
2023-04-01T14:54:23.817Z,97348.22
2023-04-01T14:57:30.515Z,97353.06
2023-04-01T15:00:47.264Z,97343.75
2023-04-01T15:03:56.849Z,97359.47
2023-04-01T15:07:07.580Z,97351.91
2023-04-01T15:10:20.680Z,97363.13
2023-04-01T15:13:39.417Z,97356.88
2023-04-01T15:16:50.163Z,97379.22
2023-04-01T15:20:03.284Z,97371.63
2023-04-01T15:23:17.953Z,97367.97
2023-04-01T15:26:27.889Z,97368.09
2023-04-01T15:29:53.835Z,97365.81
2023-04-01T15:33:15.484Z,97384.38
2023-04-01T15:36:28.994Z,97373.63
2023-04-01T15:39:42.900Z,97382.56
2023-04-01T15:42:54.685Z,97384.63
2023-04-01T15:46:01.412Z,97393.56
2023-04-01T15:49:12.767Z,97394.53
2023-04-01T15:52:19.192Z,97391.06
2023-04-01T15:55:27.151Z,97390.34
2023-04-01T15:58:49.114Z,97390.22
2023-04-01T16:02:00.819Z,97391.66
2023-04-01T16:05:06.723Z,97401.56
2023-04-01T16:08:21.457Z,97406.16
2023-04-01T16:11:28.513Z,97417.78
2023-04-01T16:14:38.894Z,97410.50
2023-04-01T16:18:03.534Z,97407.56
2023-04-01T16:21:10.196Z,97413.72
2023-04-01T16:24:19.992Z,97419.16
2023-04-01T16:27:28.367Z,97413.84
2023-04-01T16:30:38.221Z,97423.78
2023-04-01T16:33:49.178Z,97425.34
2023-04-01T16:36:53.973Z,97427.06
2023-04-01T16:40:04.711Z,97428.06
2023-04-01T16:43:13.989Z,97418.59
2023-04-01T16:46:37.946Z,97420.75
2023-04-01T16:49:47.220Z,97427.91
2023-04-01T16:53:00.718Z,97435.47
2023-04-01T16:56:11.147Z,97445.28
2023-04-01T16:59:20.784Z,97439.72
2023-04-01T17:02:26.998Z,97435.06
2023-04-01T17:05:42.878Z,97436.41
2023-04-01T17:09:14.895Z,97437.53
2023-04-01T17:12:22.835Z,97431.38
2023-04-01T17:15:32.783Z,97436.31
2023-04-01T17:18:42.024Z,97429.31
2023-04-01T17:22:02.531Z,97431.25
2023-04-01T17:25:36.486Z,97444.28
2023-04-01T17:28:49.111Z,97442.69
2023-04-01T17:31:57.433Z,97447.19
2023-04-01T17:35:07.515Z,97451.19
2023-04-01T17:38:19.698Z,97451.28
2023-04-01T17:41:30.833Z,97465.19
2023-04-01T17:44:45.981Z,97465.47
2023-04-01T17:48:06.154Z,97471.53
2023-04-01T17:51:21.368Z,97475.41
2023-04-01T17:54:31.007Z,97476.66
2023-04-01T17:57:45.591Z,97481.53
2023-04-01T18:01:04.619Z,97486.59
2023-04-01T18:04:20.907Z,97503.84
2023-04-01T18:07:39.231Z,97500.94
2023-04-01T18:11:00.954Z,97512.09
2023-04-01T18:14:44.115Z,97520.41
2023-04-01T18:17:58.418Z,97523.06
2023-04-01T18:21:07.228Z,97519.41
2023-04-01T18:24:17.358Z,97527.19
2023-04-01T18:27:24.821Z,97531.69
2023-04-01T18:30:30.789Z,97532.34
2023-04-01T18:33:38.519Z,97531.56
2023-04-01T18:36:46.545Z,97533.56
2023-04-01T18:39:52.077Z,97542.19
2023-04-01T18:43:07.064Z,97544.47
2023-04-01T18:46:15.454Z,97540.31
2023-04-01T18:49:23.632Z,97546.34
2023-04-01T18:52:29.688Z,97550.97
2023-04-01T18:55:38.365Z,97555.59
2023-04-01T18:58:49.083Z,97562.50
2023-04-01T19:01:59.382Z,97559.59
2023-04-01T19:05:04.934Z,97566.28
2023-04-01T19:08:22.126Z,97569.16
2023-04-01T19:11:29.136Z,97572.63
2023-04-01T19:14:47.057Z,97583.09
2023-04-01T19:17:56.641Z,97571.16
2023-04-01T19:21:02.154Z,97571.06
2023-04-01T19:24:34.658Z,97570.25
2023-04-01T19:27:43.526Z,97571.16
2023-04-01T19:30:55.622Z,97576.16
2023-04-01T19:34:09.298Z,97566.03
2023-04-01T19:37:19.442Z,97561.59
2023-04-01T19:40:35.705Z,97567.81
2023-04-01T19:43:46.735Z,97571.41
2023-04-01T19:46:52.649Z,97569.56
2023-04-01T19:50:02.373Z,97577.75
2023-04-01T19:53:15.821Z,97582.75
2023-04-01T19:56:19.576Z,97580.59
2023-04-01T19:59:24.920Z,97593.41
2023-04-01T20:02:46.614Z,97615.00
2023-04-01T20:05:59.290Z,97615.25
2023-04-01T20:09:12.598Z,97607.66
2023-04-01T20:12:23.765Z,97604.81
2023-04-01T20:15:33.706Z,97606.41
2023-04-01T20:18:41.945Z,97614.00
2023-04-01T20:21:45.460Z,97611.25
2023-04-01T20:24:48.733Z,97606.59
2023-04-01T20:27:53.908Z,97617.28
2023-04-01T20:31:06.020Z,97619.56
2023-04-01T20:34:33.132Z,97624.78
2023-04-01T20:37:41.761Z,97630.13
2023-04-01T20:40:47.595Z,97630.91
2023-04-01T20:44:13.965Z,97633.41
2023-04-01T20:47:23.261Z,97634.31
2023-04-01T20:50:31.553Z,97638.28
2023-04-01T20:53:39.569Z,97649.31
2023-04-01T20:56:54.585Z,97652.47
2023-04-01T21:00:16.962Z,97653.88
2023-04-01T21:03:35.388Z,97642.75
2023-04-01T21:07:01.426Z,97640.47
2023-04-01T21:10:22.442Z,97640.69
2023-04-01T21:13:35.308Z,97657.91
2023-04-01T21:16:46.577Z,97654.34
2023-04-01T21:20:00.372Z,97654.34
2023-04-01T21:23:16.191Z,97653.91
2023-04-01T21:26:30.327Z,97654.69
2023-04-01T21:29:44.912Z,97648.22
2023-04-01T21:32:58.223Z,97654.59
2023-04-01T21:36:07.789Z,97650.97
2023-04-01T21:39:25.005Z,97662.22
2023-04-01T21:42:38.238Z,97659.38
2023-04-01T21:45:52.884Z,97675.97
2023-04-01T21:49:09.093Z,97678.25
2023-04-01T21:52:30.370Z,97680.28
2023-04-01T21:55:58.961Z,97683.91
2023-04-01T21:59:38.040Z,97694.94
2023-04-01T22:02:53.777Z,97691.88
2023-04-01T22:06:01.218Z,97694.94
2023-04-01T22:09:13.237Z,97693.66
2023-04-01T22:12:20.046Z,97698.81
2023-04-01T22:15:30.598Z,97696.66
2023-04-01T22:18:39.007Z,97706.19
2023-04-01T22:21:52.787Z,97701.91
2023-04-01T22:25:05.031Z,97702.94
2023-04-01T22:28:14.057Z,97705.00
2023-04-01T22:31:19.363Z,97705.69
2023-04-01T22:34:25.196Z,97706.69
2023-04-01T22:37:36.644Z,97703.44
2023-04-01T22:40:43.802Z,97712.09
2023-04-01T22:43:47.808Z,97713.94
2023-04-01T22:46:58.214Z,97716.44
2023-04-01T22:50:04.961Z,97715.19
2023-04-01T22:53:18.987Z,97717.34
2023-04-01T22:56:24.048Z,97717.22
2023-04-01T22:59:33.830Z,97721.09
2023-04-01T23:02:39.497Z,97722.53
2023-04-01T23:05:46.937Z,97729.63
2023-04-01T23:08:59.332Z,97721.88
2023-04-01T23:12:04.830Z,97734.50
2023-04-01T23:15:14.307Z,97731.28
2023-04-01T23:18:23.054Z,97734.22
2023-04-01T23:21:28.820Z,97739.81
2023-04-01T23:24:36.109Z,97743.47
2023-04-01T23:27:42.729Z,97750.72
2023-04-01T23:30:52.359Z,97755.28
2023-04-01T23:33:56.074Z,97755.25
2023-04-01T23:36:59.358Z,97759.69
2023-04-01T23:40:03.024Z,97762.06
2023-04-01T23:43:12.284Z,97770.25
2023-04-01T23:46:16.201Z,97767.44
2023-04-01T23:49:21.930Z,97765.78
2023-04-01T23:52:25.833Z,97769.53
2023-04-01T23:55:30.267Z,97773.03
2023-04-01T23:58:43.130Z,97766.56
